createdAt,value
2023-02-23T00:06:44.367Z,97.60
2023-02-23T00:16:47.263Z,97.74
2023-02-23T00:26:51.797Z,97.37
2023-02-23T00:36:55.590Z,96.94
2023-02-23T00:46:59.614Z,97.52
2023-02-23T00:57:02.237Z,97.88
2023-02-23T01:07:06.710Z,97.93
2023-02-23T01:17:09.317Z,98.30
2023-02-23T01:27:13.680Z,96.36
2023-02-23T01:37:16.439Z,96.58
2023-02-23T01:47:20.684Z,96.71
2023-02-23T01:57:26.914Z,96.39
2023-02-23T02:07:34.998Z,96.13
2023-02-23T02:17:45.016Z,96.51
2023-02-23T02:28:29.604Z,96.35
2023-02-23T02:38:50.519Z,96.62
2023-02-23T02:49:00.421Z,96.51
2023-02-23T02:59:06.047Z,96.62
2023-02-23T03:09:35.859Z,96.27
2023-02-23T03:20:06.487Z,96.37
2023-02-23T03:30:31.910Z,96.49
2023-02-23T03:40:57.588Z,97.39
2023-02-23T03:51:22.434Z,96.60
2023-02-23T04:01:46.912Z,96.64
2023-02-23T04:12:16.752Z,96.49
2023-02-23T04:22:21.267Z,96.41
2023-02-23T04:32:23.975Z,96.27
2023-02-23T04:42:28.706Z,96.66
2023-02-23T04:52:31.344Z,97.95
2023-02-23T05:02:35.295Z,97.54
2023-02-23T05:12:38.057Z,98.02
2023-02-23T05:22:42.658Z,98.07
2023-02-23T05:32:45.388Z,97.56
2023-02-23T05:42:49.328Z,98.03
2023-02-23T05:52:51.934Z,97.80
2023-02-23T06:02:56.242Z,98.00
2023-02-23T06:12:58.897Z,97.72
2023-02-23T06:23:02.889Z,97.51
2023-02-23T06:33:06.105Z,97.54
2023-02-23T06:43:10.186Z,97.37
2023-02-23T06:53:12.820Z,97.47
2023-02-23T07:03:17.079Z,97.28
2023-02-23T07:13:20.442Z,98.21
2023-02-23T07:23:24.887Z,97.71
2023-02-23T07:33:27.645Z,97.61
2023-02-23T07:43:32.008Z,97.20
2023-02-23T07:53:34.597Z,97.49
2023-02-23T08:03:38.737Z,97.63
2023-02-23T08:13:41.374Z,97.52
2023-02-23T08:23:45.461Z,97.18
2023-02-23T08:33:48.231Z,97.39
2023-02-23T08:43:52.239Z,97.05
2023-02-23T08:53:57.092Z,96.76
2023-02-23T09:04:01.826Z,97.06
2023-02-23T09:14:04.591Z,96.13
2023-02-23T09:24:11.217Z,95.78
2023-02-23T09:34:13.977Z,95.84
2023-02-23T09:44:26.204Z,95.75
2023-02-23T09:54:33.522Z,95.22
2023-02-23T10:04:43.651Z,95.01
2023-02-23T10:15:06.390Z,95.07
2023-02-23T10:25:14.645Z,96.54
2023-02-23T10:35:24.563Z,96.89
2023-02-23T10:45:30.350Z,96.65
2023-02-23T10:55:34.080Z,96.82
2023-02-23T11:05:46.293Z,96.71
2023-02-23T11:15:51.125Z,96.42
2023-02-23T11:25:56.714Z,96.04
2023-02-23T11:36:01.603Z,94.16
2023-02-23T11:46:05.919Z,93.14
2023-02-23T11:56:11.136Z,89.12
2023-02-23T12:06:30.610Z,88.14
2023-02-23T12:16:38.491Z,84.32
2023-02-23T12:26:51.407Z,83.68
2023-02-23T12:36:58.844Z,82.83
2023-02-23T12:47:08.677Z,84.61
2023-02-23T12:57:23.712Z,84.48
2023-02-23T13:07:34.976Z,85.99
2023-02-23T13:17:42.107Z,86.36
2023-02-23T13:27:52.328Z,86.44
2023-02-23T13:38:00.964Z,86.25
2023-02-23T13:48:13.442Z,85.85
2023-02-23T13:58:18.995Z,85.53
2023-02-23T14:08:28.026Z,85.93
2023-02-23T14:18:33.558Z,90.03
2023-02-23T14:28:39.175Z,91.56
2023-02-23T14:38:47.929Z,92.82
2023-02-23T14:49:01.394Z,92.76
2023-02-23T14:59:08.352Z,92.43
2023-02-23T15:09:18.820Z,93.54
2023-02-23T15:19:24.630Z,92.50
2023-02-23T15:29:33.170Z,93.47
2023-02-23T15:39:38.653Z,92.56
2023-02-23T15:49:42.726Z,92.27
2023-02-23T15:59:47.679Z,90.22
2023-02-23T16:09:54.437Z,87.86
2023-02-23T16:20:11.204Z,87.86
2023-02-23T16:30:23.208Z,85.48
2023-02-23T16:40:26.072Z,84.99
2023-02-23T16:50:30.389Z,82.21
2023-02-23T17:00:34.306Z,81.78
2023-02-23T17:10:41.228Z,81.14
2023-02-23T17:20:44.178Z,80.33
2023-02-23T17:30:48.598Z,80.52
2023-02-23T17:40:51.435Z,79.59
2023-02-23T17:51:00.886Z,80.43
2023-02-23T18:01:05.608Z,80.23
2023-02-23T18:11:10.407Z,79.82
2023-02-23T18:21:15.459Z,78.92
2023-02-23T18:31:22.228Z,78.65
2023-02-23T18:41:28.602Z,77.98
2023-02-23T18:51:33.289Z,79.21
2023-02-23T19:01:37.560Z,79.82
2023-02-23T19:11:43.566Z,80.59
2023-02-23T19:21:47.320Z,80.92
2023-02-23T19:31:51.725Z,81.42
2023-02-23T19:41:54.431Z,81.52
2023-02-23T19:51:58.376Z,81.59
2023-02-23T20:02:01.000Z,81.46
2023-02-23T20:12:05.737Z,81.58
2023-02-23T20:22:08.939Z,81.01
2023-02-23T20:32:12.992Z,80.90
2023-02-23T20:42:15.659Z,81.78
2023-02-23T20:52:19.627Z,82.41
2023-02-23T21:02:22.322Z,82.63
2023-02-23T21:12:26.965Z,83.22
2023-02-23T21:22:29.581Z,83.84
2023-02-23T21:32:35.211Z,84.56
2023-02-23T21:42:39.350Z,84.77
2023-02-23T21:52:45.426Z,84.94
2023-02-23T22:02:48.417Z,85.69
2023-02-23T22:12:55.806Z,85.38
2023-02-23T22:22:58.612Z,84.79
2023-02-23T22:33:02.691Z,84.97
2023-02-23T22:43:08.729Z,83.74
2023-02-23T22:53:12.824Z,83.29
2023-02-23T23:03:15.452Z,81.84
2023-02-23T23:13:19.518Z,81.37
2023-02-23T23:23:25.925Z,79.11
2023-02-23T23:33:30.501Z,78.72
2023-02-23T23:43:36.864Z,77.25
2023-02-23T23:53:40.878Z,76.07
